Sage Danube — D5OP4 — position and weather

sailwx.info

Track history (hours):
 
Tides and Currents Weather Stations Pressure Air Temp Water Temp Dewpoint Dewpoint Depression Visibility Wind Speed Wind Dir Waves Ship Positions

Sage Danube

Last reported at 2017-Nov-14 06:51 UTC. Time now 2017-Nov-17 21:29 UTC.
Position N 27°08' W 014°33'.

Length 199 m; draft 10.5 m.

Type: Cargo ship. MMSI: 636018196.

Date/timePositionNaut miles runAvg speedWind from/ knotsBaromVisibWave heightAir tempDewpointWater temp
2017-Nov-14 06:51N 27°08' W 014°33'513.1
2017-Nov-14 06:26N 27°11' W 014°28'613.0
2017-Nov-14 05:56N 27°16' W 014°23'613.0
2017-Nov-14 05:27N 27°21' W 014°19'1113.0
2017-Nov-14 04:37N 27°29' W 014°10'213.3
2017-Nov-14 04:30N 27°30' W 014°09'813.9
2017-Nov-14 03:57N 27°36' W 014°03'714.0
2017-Nov-14 03:28N 27°40' W 013°58'613.8
2017-Nov-14 03:00N 27°45' W 013°54'713.6
2017-Nov-14 02:30N 27°51' W 013°49'713.4
2017-Nov-14 02:00N 27°56' W 013°45'613.1
2017-Nov-14 01:30N 28°02' W 013°40'712.7
2017-Nov-14 01:00N 28°07' W 013°36'713.1
2017-Nov-14 00:27N 28°13' W 013°31'613.0
2017-Nov-14 00:00N 28°18' W 013°28'612.7
2017-Nov-13 23:30N 28°23' W 013°23'612.6
2017-Nov-13 22:59N 28°28' W 013°19'612.7
2017-Nov-13 22:30N 28°33' W 013°15'713.2
2017-Nov-13 21:58N 28°39' W 013°10'33413.1
2017-Nov-12 20:27N 33°11' W 009°25'613.6
2017-Nov-12 19:59N 33°16' W 009°20'713.3
2017-Nov-12 19:29N 33°22' W 009°16'24012.9
2017-Nov-12 00:56N 35°58' W 005°34'610.8
2017-Nov-12 00:25N 35°60' W 005°28'511.4
2017-Nov-12 00:00N 36°03' W 005°24'4 6.9
2017-Nov-11 23:27N 36°07' W 005°22'0 0.1
2017-Nov-11 22:23N 36°07' W 005°22'0 0.0
2017-Nov-11 21:50N 36°07' W 005°22'0 0.0
2017-Nov-11 21:26N 36°07' W 005°22'0 0.0
2017-Nov-11 20:58N 36°07' W 005°22'0 0.0
2017-Nov-11 20:29N 36°07' W 005°22'0 0.0
2017-Nov-11 19:56N 36°07' W 005°22'0 0.0
2017-Nov-11 19:26N 36°07' W 005°22'0 0.1
2017-Nov-11 18:59N 36°07' W 005°22'0 0.1
2017-Nov-11 18:29N 36°07' W 005°22'0 0.1
2017-Nov-11 17:59N 36°07' W 005°22'0 0.1
2017-Nov-11 17:29N 36°07' W 005°22'0 0.3
2017-Nov-11 16:56N 36°07' W 005°22'0 0.1
2017-Nov-11 16:20N 36°07' W 005°22'0 0.0
2017-Nov-11 15:53N 36°07' W 005°22'0 0.1
2017-Nov-11 14:41N 36°07' W 005°22'0 0.1
2017-Nov-11 14:29N 36°07' W 005°22'0 0.0
2017-Nov-11 13:59N 36°07' W 005°22'0 0.1
2017-Nov-11 10:59N 36°07' W 005°22'1 1.8
2017-Nov-11 10:30N 36°06' W 005°22'3 6.4
2017-Nov-11 10:00N 36°04' W 005°18'611.4
2017-Nov-11 09:30N 36°04' W 005°11'  
2017-Nov-08 07:45N 36°41' E 013°37'310.8
2017-Nov-08 07:30N 36°40' E 013°40'510.8
2017-Nov-08 07:00N 36°38' E 013°46'510.9
2017-Nov-08 06:30N 36°36' E 013°52'510.8
2017-Nov-08 06:00N 36°35' E 013°59'510.5
2017-Nov-08 05:30N 36°33' E 014°05'510.4
2017-Nov-08 05:00N 36°31' E 014°11'510.6
2017-Nov-08 04:30N 36°30' E 014°18'510.5
2017-Nov-08 04:00N 36°28' E 014°24'510.7
2017-Nov-08 03:30N 36°26' E 014°30'611.3
2017-Nov-08 03:00N 36°24' E 014°37'611.3
2017-Nov-08 02:30N 36°24' E 014°44'611.7
2017-Nov-08 01:59N 36°23' E 014°51'  
2017-Nov-05 14:40N 35°51' E 030°21'  
Track history (hours):
 
Tides and Currents Weather Stations Pressure Air Temp Water Temp Dewpoint Dewpoint Depression Visibility Wind Speed Wind Dir Waves Ship Positions

Sage Danube

Last reported at 2017-Nov-14 06:51 UTC. Time now 2017-Nov-17 21:29 UTC.
Position N 27°08' W 014°33'.

Length 199 m; draft 10.5 m.

Type: Cargo ship. MMSI: 636018196.

Date/timePositionNaut miles runAvg speedWind from/ knotsBaromVisibWave heightAir tempDewpointWater temp
2017-Nov-14 06:51N 27°08' W 014°33'513.1
2017-Nov-14 06:26N 27°11' W 014°28'613.0
2017-Nov-14 05:56N 27°16' W 014°23'613.0
2017-Nov-14 05:27N 27°21' W 014°19'1113.0
2017-Nov-14 04:37N 27°29' W 014°10'213.3
2017-Nov-14 04:30N 27°30' W 014°09'813.9
2017-Nov-14 03:57N 27°36' W 014°03'714.0
2017-Nov-14 03:28N 27°40' W 013°58'613.8
2017-Nov-14 03:00N 27°45' W 013°54'713.6
2017-Nov-14 02:30N 27°51' W 013°49'713.4
2017-Nov-14 02:00N 27°56' W 013°45'613.1
2017-Nov-14 01:30N 28°02' W 013°40'712.7
2017-Nov-14 01:00N 28°07' W 013°36'713.1
2017-Nov-14 00:27N 28°13' W 013°31'613.0
2017-Nov-14 00:00N 28°18' W 013°28'612.7
2017-Nov-13 23:30N 28°23' W 013°23'612.6
2017-Nov-13 22:59N 28°28' W 013°19'612.7
2017-Nov-13 22:30N 28°33' W 013°15'713.2
2017-Nov-13 21:58N 28°39' W 013°10'33413.1
2017-Nov-12 20:27N 33°11' W 009°25'613.6
2017-Nov-12 19:59N 33°16' W 009°20'713.3
2017-Nov-12 19:29N 33°22' W 009°16'24012.9
2017-Nov-12 00:56N 35°58' W 005°34'610.8
2017-Nov-12 00:25N 35°60' W 005°28'511.4
2017-Nov-12 00:00N 36°03' W 005°24'4 6.9
2017-Nov-11 23:27N 36°07' W 005°22'0 0.1
2017-Nov-11 22:23N 36°07' W 005°22'0 0.0
2017-Nov-11 21:50N 36°07' W 005°22'0 0.0
2017-Nov-11 21:26N 36°07' W 005°22'0 0.0
2017-Nov-11 20:58N 36°07' W 005°22'0 0.0
2017-Nov-11 20:29N 36°07' W 005°22'0 0.0
2017-Nov-11 19:56N 36°07' W 005°22'0 0.0
2017-Nov-11 19:26N 36°07' W 005°22'0 0.1
2017-Nov-11 18:59N 36°07' W 005°22'0 0.1
2017-Nov-11 18:29N 36°07' W 005°22'0 0.1
2017-Nov-11 17:59N 36°07' W 005°22'0 0.1
2017-Nov-11 17:29N 36°07' W 005°22'0 0.3
2017-Nov-11 16:56N 36°07' W 005°22'0 0.1
2017-Nov-11 16:20N 36°07' W 005°22'0 0.0
2017-Nov-11 15:53N 36°07' W 005°22'0 0.1
2017-Nov-11 14:41N 36°07' W 005°22'0 0.1
2017-Nov-11 14:29N 36°07' W 005°22'0 0.0
2017-Nov-11 13:59N 36°07' W 005°22'0 0.1
2017-Nov-11 10:59N 36°07' W 005°22'1 1.8
2017-Nov-11 10:30N 36°06' W 005°22'3 6.4
2017-Nov-11 10:00N 36°04' W 005°18'611.4
2017-Nov-11 09:30N 36°04' W 005°11'  
2017-Nov-08 07:45N 36°41' E 013°37'310.8
2017-Nov-08 07:30N 36°40' E 013°40'510.8
2017-Nov-08 07:00N 36°38' E 013°46'510.9
2017-Nov-08 06:30N 36°36' E 013°52'510.8
2017-Nov-08 06:00N 36°35' E 013°59'510.5
2017-Nov-08 05:30N 36°33' E 014°05'510.4
2017-Nov-08 05:00N 36°31' E 014°11'510.6
2017-Nov-08 04:30N 36°30' E 014°18'510.5
2017-Nov-08 04:00N 36°28' E 014°24'510.7
2017-Nov-08 03:30N 36°26' E 014°30'611.3
2017-Nov-08 03:00N 36°24' E 014°37'611.3
2017-Nov-08 02:30N 36°24' E 014°44'611.7
2017-Nov-08 01:59N 36°23' E 014°51'  
2017-Nov-05 14:40N 35°51' E 030°21'  

Dump ship's entire track history